sensor_id;sensor_type;location;lat;lon;timestamp;pressure;altitude;pressure_sealevel;temperature
66604;BMP280;53460;39.612;8.822;2024-01-11T00:01:27;103355.13;;;10.29
66604;BMP280;53460;39.612;8.822;2024-01-11T00:03:52;103343.03;;;10.28
66604;BMP280;53460;39.612;8.822;2024-01-11T00:06:18;103333.44;;;10.19
66604;BMP280;53460;39.612;8.822;2024-01-11T00:08:44;103331.25;;;10.18
66604;BMP280;53460;39.612;8.822;2024-01-11T00:11:10;103321.31;;;10.18
66604;BMP280;53460;39.612;8.822;2024-01-11T00:13:36;103309.78;;;10.04
66604;BMP280;53460;39.612;8.822;2024-01-11T00:16:01;103305.56;;;10.15
66604;BMP280;53460;39.612;8.822;2024-01-11T00:18:27;103317.63;;;10.21
66604;BMP280;53460;39.612;8.822;2024-01-11T00:20:53;103323.00;;;10.16
66604;BMP280;53460;39.612;8.822;2024-01-11T00:23:19;103322.22;;;10.02
66604;BMP280;53460;39.612;8.822;2024-01-11T00:25:45;103326.28;;;9.84
66604;BMP280;53460;39.612;8.822;2024-01-11T00:28:10;103294.03;;;10.06
66604;BMP280;53460;39.612;8.822;2024-01-11T00:30:36;103269.25;;;10.12
66604;BMP280;53460;39.612;8.822;2024-01-11T00:33:02;103264.09;;;9.95
66604;BMP280;53460;39.612;8.822;2024-01-11T00:35:28;103258.19;;;10.02
66604;BMP280;53460;39.612;8.822;2024-01-11T00:37:53;103250.16;;;9.83
66604;BMP280;53460;39.612;8.822;2024-01-11T00:40:19;103243.63;;;10.03
66604;BMP280;53460;39.612;8.822;2024-01-11T00:42:44;103255.66;;;9.91
66604;BMP280;53460;39.612;8.822;2024-01-11T00:45:10;103231.53;;;10.02
66604;BMP280;53460;39.612;8.822;2024-01-11T00:47:36;103228.47;;;10.11
66604;BMP280;53460;39.612;8.822;2024-01-11T00:50:01;103228.06;;;10.07
66604;BMP280;53460;39.612;8.822;2024-01-11T00:52:27;103225.09;;;10.11
66604;BMP280;53460;39.612;8.822;2024-01-11T00:54:52;103230.81;;;10.01
66604;BMP280;53460;39.612;8.822;2024-01-11T00:57:18;103222.69;;;9.88
66604;BMP280;53460;39.612;8.822;2024-01-11T00:59:44;103210.44;;;9.80
66604;BMP280;53460;39.612;8.822;2024-01-11T01:02:09;103211.59;;;9.84
66604;BMP280;53460;39.612;8.822;2024-01-11T01:04:38;103196.63;;;10.00
66604;BMP280;53460;39.612;8.822;2024-01-11T01:07:04;103185.66;;;10.03
66604;BMP280;53460;39.612;8.822;2024-01-11T01:09:31;103196.47;;;10.11
66604;BMP280;53460;39.612;8.822;2024-01-11T01:11:57;103215.44;;;10.07
66604;BMP280;53460;39.612;8.822;2024-01-11T01:14:22;103220.63;;;10.00
66604;BMP280;53460;39.612;8.822;2024-01-11T01:16:48;103228.84;;;10.02
66604;BMP280;53460;39.612;8.822;2024-01-11T01:19:14;103225.97;;;10.00
66604;BMP280;53460;39.612;8.822;2024-01-11T01:21:39;103215.78;;;9.98
66604;BMP280;53460;39.612;8.822;2024-01-11T01:24:05;103224.94;;;9.84
66604;BMP280;53460;39.612;8.822;2024-01-11T01:26:31;103207.13;;;9.92
66604;BMP280;53460;39.612;8.822;2024-01-11T01:28:57;103204.13;;;10.01
66604;BMP280;53460;39.612;8.822;2024-01-11T01:31:22;103212.84;;;10.02
66604;BMP280;53460;39.612;8.822;2024-01-11T01:33:48;103219.41;;;10.01
66604;BMP280;53460;39.612;8.822;2024-01-11T01:36:14;103216.53;;;9.99
66604;BMP280;53460;39.612;8.822;2024-01-11T01:38:40;103213.94;;;9.93
66604;BMP280;53460;39.612;8.822;2024-01-11T01:41:06;103211.03;;;9.91
66604;BMP280;53460;39.612;8.822;2024-01-11T01:43:32;103199.94;;;9.87
66604;BMP280;53460;39.612;8.822;2024-01-11T01:45:58;103194.59;;;9.87
66604;BMP280;53460;39.612;8.822;2024-01-11T01:48:24;103195.53;;;9.90
66604;BMP280;53460;39.612;8.822;2024-01-11T01:50:50;103205.75;;;9.86
66604;BMP280;53460;39.612;8.822;2024-01-11T01:53:19;103195.19;;;9.99
66604;BMP280;53460;39.612;8.822;2024-01-11T01:55:45;103203.66;;;9.97
66604;BMP280;53460;39.612;8.822;2024-01-11T01:58:11;103208.41;;;10.04
66604;BMP280;53460;39.612;8.822;2024-01-11T02:00:38;103222.72;;;10.07
66604;BMP280;53460;39.612;8.822;2024-01-11T02:03:04;103236.13;;;10.01
66604;BMP280;53460;39.612;8.822;2024-01-11T02:05:30;103237.75;;;10.04
66604;BMP280;53460;39.612;8.822;2024-01-11T02:07:56;103246.00;;;10.06
66604;BMP280;53460;39.612;8.822;2024-01-11T02:10:23;103257.09;;;10.11
66604;BMP280;53460;39.612;8.822;2024-01-11T02:12:49;103272.81;;;10.14
66604;BMP280;53460;39.612;8.822;2024-01-11T02:15:15;103294.75;;;10.07
66604;BMP280;53460;39.612;8.822;2024-01-11T02:17:41;103314.66;;;10.06
66604;BMP280;53460;39.612;8.822;2024-01-11T02:20:07;103304.53;;;9.99
66604;BMP280;53460;39.612;8.822;2024-01-11T02:22:38;103275.81;;;9.86
66604;BMP280;53460;39.612;8.822;2024-01-11T02:25:06;103257.41;;;9.64
66604;BMP280;53460;39.612;8.822;2024-01-11T02:27:44;103207.34;;;9.51
66604;BMP280;53460;39.612;8.822;2024-01-11T02:30:11;103174.38;;;9.54
66604;BMP280;53460;39.612;8.822;2024-01-11T02:32:37;103152.72;;;9.63
66604;BMP280;53460;39.612;8.822;2024-01-11T02:35:03;103129.53;;;9.77
66604;BMP280;53460;39.612;8.822;2024-01-11T02:37:29;103096.94;;;9.84
66604;BMP280;53460;39.612;8.822;2024-01-11T02:39:56;103068.31;;;9.85
66604;BMP280;53460;39.612;8.822;2024-01-11T02:42:21;103059.59;;;9.84
66604;BMP280;53460;39.612;8.822;2024-01-11T02:44:47;103071.00;;;9.85
66604;BMP280;53460;39.612;8.822;2024-01-11T02:47:13;103051.72;;;9.92
66604;BMP280;53460;39.612;8.822;2024-01-11T02:49:39;103036.97;;;9.91
66604;BMP280;53460;39.612;8.822;2024-01-11T02:52:05;103030.19;;;9.90
66604;BMP280;53460;39.612;8.822;2024-01-11T02:54:30;103010.59;;;9.87
66604;BMP280;53460;39.612;8.822;2024-01-11T02:56:56;102977.06;;;9.92
66604;BMP280;53460;39.612;8.822;2024-01-11T02:59:23;102985.31;;;9.94
66604;BMP280;53460;39.612;8.822;2024-01-11T03:01:49;102967.53;;;9.96
66604;BMP280;53460;39.612;8.822;2024-01-11T03:04:15;102970.63;;;10.00
66604;BMP280;53460;39.612;8.822;2024-01-11T03:06:42;102961.91;;;10.00
66604;BMP280;53460;39.612;8.822;2024-01-11T03:09:08;102982.28;;;9.84
66604;BMP280;53460;39.612;8.822;2024-01-11T03:11:33;102978.53;;;9.93
66604;BMP280;53460;39.612;8.822;2024-01-11T03:13:59;102978.19;;;9.96
66604;BMP280;53460;39.612;8.822;2024-01-11T03:16:24;102991.47;;;10.02
66604;BMP280;53460;39.612;8.822;2024-01-11T03:18:50;102988.88;;;9.96
66604;BMP280;53460;39.612;8.822;2024-01-11T03:21:16;103026.03;;;10.07
66604;BMP280;53460;39.612;8.822;2024-01-11T03:23:41;103055.09;;;10.11
66604;BMP280;53460;39.612;8.822;2024-01-11T03:26:17;103099.00;;;10.10
66604;BMP280;53460;39.612;8.822;2024-01-11T03:28:43;103127.25;;;10.19
66604;BMP280;53460;39.612;8.822;2024-01-11T03:31:09;103160.25;;;10.34
66604;BMP280;53460;39.612;8.822;2024-01-11T03:33:35;103174.81;;;10.33
66604;BMP280;53460;39.612;8.822;2024-01-11T03:36:11;103187.41;;;10.20
66604;BMP280;53460;39.612;8.822;2024-01-11T03:38:37;103188.47;;;10.11
66604;BMP280;53460;39.612;8.822;2024-01-11T03:41:12;103172.53;;;10.05
66604;BMP280;53460;39.612;8.822;2024-01-11T03:43:38;103180.63;;;10.00
66604;BMP280;53460;39.612;8.822;2024-01-11T03:46:04;103171.06;;;10.04
66604;BMP280;53460;39.612;8.822;2024-01-11T03:48:30;103173.41;;;9.95
66604;BMP280;53460;39.612;8.822;2024-01-11T03:50:56;103165.97;;;10.06
66604;BMP280;53460;39.612;8.822;2024-01-11T03:53:21;103172.63;;;10.00
66604;BMP280;53460;39.612;8.822;2024-01-11T03:55:47;103154.53;;;10.12
66604;BMP280;53460;39.612;8.822;2024-01-11T03:58:13;103155.06;;;10.04
66604;BMP280;53460;39.612;8.822;2024-01-11T04:00:39;103145.50;;;10.15
66604;BMP280;53460;39.612;8.822;2024-01-11T04:03:06;103140.44;;;10.11
66604;BMP280;53460;39.612;8.822;2024-01-11T04:05:32;103131.44;;;10.14
66604;BMP280;53460;39.612;8.822;2024-01-11T04:07:57;103127.13;;;9.92
66604;BMP280;53460;39.612;8.822;2024-01-11T04:10:23;103119.22;;;9.87
66604;BMP280;53460;39.612;8.822;2024-01-11T04:12:49;103101.72;;;10.04
66604;BMP280;53460;39.612;8.822;2024-01-11T04:15:14;103085.31;;;10.00
66604;BMP280;53460;39.612;8.822;2024-01-11T04:17:40;103067.53;;;9.90
66604;BMP280;53460;39.612;8.822;2024-01-11T04:20:07;103058.59;;;9.87
66604;BMP280;53460;39.612;8.822;2024-01-11T04:22:34;103031.25;;;9.87
66604;BMP280;53460;39.612;8.822;2024-01-11T04:25:00;103012.13;;;9.83
66604;BMP280;53460;39.612;8.822;2024-01-11T04:27:25;102992.34;;;9.91
66604;BMP280;53460;39.612;8.822;2024-01-11T04:29:51;102972.97;;;9.91
66604;BMP280;53460;39.612;8.822;2024-01-11T04:32:17;102970.59;;;9.55
66604;BMP280;53460;39.612;8.822;2024-01-11T04:34:43;102943.91;;;9.74
66604;BMP280;53460;39.612;8.822;2024-01-11T04:37:08;102921.25;;;9.81
66604;BMP280;53460;39.612;8.822;2024-01-11T04:39:34;102884.41;;;9.79
66604;BMP280;53460;39.612;8.822;2024-01-11T04:42:00;102864.44;;;9.72
66604;BMP280;53460;39.612;8.822;2024-01-11T04:44:28;102837.28;;;9.74
66604;BMP280;53460;39.612;8.822;2024-01-11T04:46:54;102821.50;;;9.76
66604;BMP280;53460;39.612;8.822;2024-01-11T04:49:19;102803.53;;;9.76
66604;BMP280;53460;39.612;8.822;2024-01-11T04:51:45;102789.69;;;9.78
66604;BMP280;53460;39.612;8.822;2024-01-11T04:54:11;102776.06;;;9.82
66604;BMP280;53460;39.612;8.822;2024-01-11T04:56:37;102782.31;;;9.71
66604;BMP280;53460;39.612;8.822;2024-01-11T04:59:02;102767.13;;;9.79
66604;BMP280;53460;39.612;8.822;2024-01-11T05:01:28;102752.19;;;9.76
66604;BMP280;53460;39.612;8.822;2024-01-11T05:03:53;102740.56;;;9.73
66604;BMP280;53460;39.612;8.822;2024-01-11T05:06:21;102729.91;;;9.73
66604;BMP280;53460;39.612;8.822;2024-01-11T05:08:47;102586.91;;;9.76
66604;BMP280;53460;39.612;8.822;2024-01-11T05:11:17;102579.97;;;9.60
66604;BMP280;53460;39.612;8.822;2024-01-11T05:13:43;102531.94;;;9.73
66604;BMP280;53460;39.612;8.822;2024-01-11T05:16:23;102504.91;;;9.69
66604;BMP280;53460;39.612;8.822;2024-01-11T05:18:50;102475.91;;;9.65
66604;BMP280;53460;39.612;8.822;2024-01-11T05:21:16;102461.81;;;9.78
66604;BMP280;53460;39.612;8.822;2024-01-11T05:23:41;102463.09;;;9.64
66604;BMP280;53460;39.612;8.822;2024-01-11T05:26:08;102437.63;;;9.76
66604;BMP280;53460;39.612;8.822;2024-01-11T05:28:34;102439.16;;;9.71
66604;BMP280;53460;39.612;8.822;2024-01-11T05:31:00;102438.25;;;9.69
66604;BMP280;53460;39.612;8.822;2024-01-11T05:33:26;102430.06;;;9.67
66604;BMP280;53460;39.612;8.822;2024-01-11T05:35:51;102431.38;;;9.73
66604;BMP280;53460;39.612;8.822;2024-01-11T05:38:19;102437.16;;;9.64
66604;BMP280;53460;39.612;8.822;2024-01-11T05:40:45;102429.16;;;9.64
66604;BMP280;53460;39.612;8.822;2024-01-11T05:43:11;102425.47;;;9.67
66604;BMP280;53460;39.612;8.822;2024-01-11T05:45:36;102412.78;;;9.60
66604;BMP280;53460;39.612;8.822;2024-01-11T05:48:02;102400.16;;;9.61
66604;BMP280;53460;39.612;8.822;2024-01-11T05:50:28;102394.06;;;9.53
66604;BMP280;53460;39.612;8.822;2024-01-11T05:52:54;102406.03;;;9.59
66604;BMP280;53460;39.612;8.822;2024-01-11T05:55:21;102391.47;;;9.60
66604;BMP280;53460;39.612;8.822;2024-01-11T05:57:47;102390.31;;;9.48
66604;BMP280;53460;39.612;8.822;2024-01-11T06:00:13;102366.09;;;9.38
66604;BMP280;53460;39.612;8.822;2024-01-11T06:02:40;102336.00;;;9.30
66604;BMP280;53460;39.612;8.822;2024-01-11T06:05:08;102303.44;;;9.24
66604;BMP280;53460;39.612;8.822;2024-01-11T06:07:35;102260.94;;;8.90
66604;BMP280;53460;39.612;8.822;2024-01-11T06:10:01;102179.09;;;8.83
66604;BMP280;53460;39.612;8.822;2024-01-11T06:12:28;102087.41;;;8.92
66604;BMP280;53460;39.612;8.822;2024-01-11T06:14:54;101950.06;;;8.89
66604;BMP280;53460;39.612;8.822;2024-01-11T06:17:20;101890.13;;;9.03
66604;BMP280;53460;39.612;8.822;2024-01-11T06:19:45;101847.03;;;9.20
66604;BMP280;53460;39.612;8.822;2024-01-11T06:22:11;101829.06;;;9.05
66604;BMP280;53460;39.612;8.822;2024-01-11T06:24:37;101798.41;;;9.19
66604;BMP280;53460;39.612;8.822;2024-01-11T06:27:02;101797.88;;;9.13
66604;BMP280;53460;39.612;8.822;2024-01-11T06:29:28;101783.13;;;9.27
66604;BMP280;53460;39.612;8.822;2024-01-11T06:31:54;101795.56;;;9.32
66604;BMP280;53460;39.612;8.822;2024-01-11T06:34:19;101797.88;;;9.21
66604;BMP280;53460;39.612;8.822;2024-01-11T06:36:45;101798.38;;;9.34
66604;BMP280;53460;39.612;8.822;2024-01-11T06:39:11;101820.94;;;9.26
66604;BMP280;53460;39.612;8.822;2024-01-11T06:41:38;101834.97;;;9.26
66604;BMP280;53460;39.612;8.822;2024-01-11T06:44:04;101858.56;;;9.30
66604;BMP280;53460;39.612;8.822;2024-01-11T06:46:29;101894.63;;;9.31
66604;BMP280;53460;39.612;8.822;2024-01-11T06:48:56;101886.25;;;9.42
66604;BMP280;53460;39.612;8.822;2024-01-11T06:51:22;101902.94;;;9.35
66604;BMP280;53460;39.612;8.822;2024-01-11T06:53:49;101914.84;;;9.26
66604;BMP280;53460;39.612;8.822;2024-01-11T06:56:16;101926.91;;;9.42
66604;BMP280;53460;39.612;8.822;2024-01-11T06:58:43;101945.94;;;9.46
66604;BMP280;53460;39.612;8.822;2024-01-11T07:01:09;101972.25;;;9.50
66604;BMP280;53460;39.612;8.822;2024-01-11T07:03:34;102006.50;;;9.38
66604;BMP280;53460;39.612;8.822;2024-01-11T07:06:00;102026.91;;;9.43
66604;BMP280;53460;39.612;8.822;2024-01-11T07:08:26;102050.31;;;9.30
66604;BMP280;53460;39.612;8.822;2024-01-11T07:10:51;102083.47;;;9.13
66604;BMP280;53460;39.612;8.822;2024-01-11T07:13:17;102099.56;;;9.44
66604;BMP280;53460;39.612;8.822;2024-01-11T07:15:43;102124.00;;;9.35
66604;BMP280;53460;39.612;8.822;2024-01-11T07:18:09;102146.31;;;9.60
66604;BMP280;53460;39.612;8.822;2024-01-11T07:20:34;102184.78;;;9.44
66604;BMP280;53460;39.612;8.822;2024-01-11T07:23:00;102208.09;;;9.51
66604;BMP280;53460;39.612;8.822;2024-01-11T07:25:26;102234.34;;;9.47
66604;BMP280;53460;39.612;8.822;2024-01-11T07:27:52;102265.59;;;9.18
66604;BMP280;53460;39.612;8.822;2024-01-11T07:30:17;102259.56;;;9.46
66604;BMP280;53460;39.612;8.822;2024-01-11T07:32:46;102269.19;;;9.77
66604;BMP280;53460;39.612;8.822;2024-01-11T07:35:12;102305.84;;;9.92
66604;BMP280;53460;39.612;8.822;2024-01-11T07:37:39;102361.47;;;10.24
66604;BMP280;53460;39.612;8.822;2024-01-11T07:40:08;102445.63;;;10.04
66604;BMP280;53460;39.612;8.822;2024-01-11T07:42:37;102481.28;;;10.43
66604;BMP280;53460;39.612;8.822;2024-01-11T07:45:07;102549.09;;;10.84
66604;BMP280;53460;39.612;8.822;2024-01-11T07:47:33;102664.97;;;10.81
66604;BMP280;53460;39.612;8.822;2024-01-11T07:49:59;102768.50;;;11.16
66604;BMP280;53460;39.612;8.822;2024-01-11T07:52:25;102887.81;;;11.14
66604;BMP280;53460;39.612;8.822;2024-01-11T07:54:50;102987.28;;;11.54
66604;BMP280;53460;39.612;8.822;2024-01-11T07:57:16;103109.00;;;10.94
66604;BMP280;53460;39.612;8.822;2024-01-11T07:59:42;103168.69;;;11.10
66604;BMP280;53460;39.612;8.822;2024-01-11T08:02:08;103226.28;;;11.24
66604;BMP280;53460;39.612;8.822;2024-01-11T08:04:33;103263.06;;;11.58
66604;BMP280;53460;39.612;8.822;2024-01-11T08:06:59;103307.44;;;10.76
66604;BMP280;53460;39.612;8.822;2024-01-11T08:09:28;103311.88;;;10.55
66604;BMP280;53460;39.612;8.822;2024-01-11T08:11:54;103286.47;;;11.12
66604;BMP280;53460;39.612;8.822;2024-01-11T08:14:20;103285.47;;;11.15
66604;BMP280;53460;39.612;8.822;2024-01-11T08:16:46;103272.44;;;11.25
66604;BMP280;53460;39.612;8.822;2024-01-11T08:19:12;103269.03;;;11.24
66604;BMP280;53460;39.612;8.822;2024-01-11T08:21:41;103272.84;;;11.29
66604;BMP280;53460;39.612;8.822;2024-01-11T08:24:07;103276.16;;;11.48
66604;BMP280;53460;39.612;8.822;2024-01-11T08:26:33;103288.03;;;11.08
66604;BMP280;53460;39.612;8.822;2024-01-11T08:28:59;103293.03;;;10.79
66604;BMP280;53460;39.612;8.822;2024-01-11T08:31:25;103281.41;;;10.95
66604;BMP280;53460;39.612;8.822;2024-01-11T08:33:51;103259.84;;;11.07
66604;BMP280;53460;39.612;8.822;2024-01-11T08:36:17;103247.34;;;11.28
66604;BMP280;53460;39.612;8.822;2024-01-11T08:38:42;103269.19;;;11.00
66604;BMP280;53460;39.612;8.822;2024-01-11T08:41:08;103264.13;;;10.96
66604;BMP280;53460;39.612;8.822;2024-01-11T08:43:34;103261.75;;;11.25
66604;BMP280;53460;39.612;8.822;2024-01-11T08:45:59;103244.38;;;11.31
66604;BMP280;53460;39.612;8.822;2024-01-11T08:48:26;103258.16;;;11.36
66604;BMP280;53460;39.612;8.822;2024-01-11T08:50:52;103262.47;;;11.52
66604;BMP280;53460;39.612;8.822;2024-01-11T08:53:18;103269.47;;;11.55
66604;BMP280;53460;39.612;8.822;2024-01-11T08:55:43;103263.66;;;11.90
66604;BMP280;53460;39.612;8.822;2024-01-11T08:58:09;103303.00;;;11.56
66604;BMP280;53460;39.612;8.822;2024-01-11T09:00:39;103303.31;;;11.79
66604;BMP280;53460;39.612;8.822;2024-01-11T09:03:05;103312.88;;;11.61
66604;BMP280;53460;39.612;8.822;2024-01-11T09:05:30;103311.22;;;11.71
66604;BMP280;53460;39.612;8.822;2024-01-11T09:07:57;103307.03;;;12.23
66604;BMP280;53460;39.612;8.822;2024-01-11T09:10:23;103305.66;;;12.30
66604;BMP280;53460;39.612;8.822;2024-01-11T09:12:48;103301.31;;;12.40
66604;BMP280;53460;39.612;8.822;2024-01-11T09:15:14;103298.59;;;12.53
66604;BMP280;53460;39.612;8.822;2024-01-11T09:17:40;103307.56;;;12.55
66604;BMP280;53460;39.612;8.822;2024-01-11T09:20:06;103283.13;;;12.59
66604;BMP280;53460;39.612;8.822;2024-01-11T09:22:31;103263.63;;;12.79
66604;BMP280;53460;39.612;8.822;2024-01-11T09:24:58;103247.69;;;12.74
66604;BMP280;53460;39.612;8.822;2024-01-11T09:27:23;103212.09;;;12.94
66604;BMP280;53460;39.612;8.822;2024-01-11T09:29:49;103153.50;;;12.91
66604;BMP280;53460;39.612;8.822;2024-01-11T09:32:14;103125.91;;;13.26
66604;BMP280;53460;39.612;8.822;2024-01-11T09:34:40;103078.59;;;13.36
66604;BMP280;53460;39.612;8.822;2024-01-11T09:37:06;103008.69;;;13.65
66604;BMP280;53460;39.612;8.822;2024-01-11T09:39:31;102857.44;;;13.93
66604;BMP280;53460;39.612;8.822;2024-01-11T09:41:59;102619.41;;;13.78
66604;BMP280;53460;39.612;8.822;2024-01-11T09:44:30;102518.44;;;13.82
66604;BMP280;53460;39.612;8.822;2024-01-11T09:46:57;102420.22;;;13.87
66604;BMP280;53460;39.612;8.822;2024-01-11T09:49:24;102242.59;;;13.71
66604;BMP280;53460;39.612;8.822;2024-01-11T09:51:50;102203.13;;;13.54
66604;BMP280;53460;39.612;8.822;2024-01-11T09:54:18;102281.88;;;14.40
66604;BMP280;53460;39.612;8.822;2024-01-11T09:56:46;102050.53;;;14.94
66604;BMP280;53460;39.612;8.822;2024-01-11T09:59:12;101753.16;;;14.98
66604;BMP280;53460;39.612;8.822;2024-01-11T10:01:38;101259.94;;;14.97
66604;BMP280;53460;39.612;8.822;2024-01-11T10:04:04;101114.44;;;17.05
66604;BMP280;53460;39.612;8.822;2024-01-11T10:06:32;100459.59;;;21.60
66604;BMP280;53460;39.612;8.822;2024-01-11T10:08:58;96339.97;;;21.94
66604;BMP280;53460;39.612;8.822;2024-01-11T10:11:24;96628.56;;;16.67
66604;BMP280;53460;39.612;8.822;2024-01-11T10:13:56;96672.72;;;16.99
66604;BMP280;53460;39.612;8.822;2024-01-11T10:16:21;96736.91;;;16.41
66604;BMP280;53460;39.612;8.822;2024-01-11T10:18:47;96789.88;;;19.06
66604;BMP280;53460;39.612;8.822;2024-01-11T10:21:13;96440.50;;;22.98
66604;BMP280;53460;39.612;8.822;2024-01-11T10:23:39;97764.22;;;19.45
66604;BMP280;53460;39.612;8.822;2024-01-11T10:26:05;97847.38;;;20.04
66604;BMP280;53460;39.612;8.822;2024-01-11T10:28:33;99276.00;;;26.85
66604;BMP280;53460;39.612;8.822;2024-01-11T10:31:03;99654.75;;;19.65
66604;BMP280;53460;39.612;8.822;2024-01-11T10:33:33;98858.75;;;19.28
66604;BMP280;53460;39.612;8.822;2024-01-11T10:36:00;98815.72;;;19.93
66604;BMP280;53460;39.612;8.822;2024-01-11T10:38:26;99419.97;;;24.38
66604;BMP280;53460;39.612;8.822;2024-01-11T10:40:55;99964.97;;;28.65
66604;BMP280;53460;39.612;8.822;2024-01-11T10:43:22;100206.34;;;29.04
66604;BMP280;53460;39.612;8.822;2024-01-11T10:45:52;100249.53;;;28.21
66604;BMP280;53460;39.612;8.822;2024-01-11T10:48:24;100246.78;;;28.81
66604;BMP280;53460;39.612;8.822;2024-01-11T10:50:54;100290.56;;;32.16
66604;BMP280;53460;39.612;8.822;2024-01-11T10:55:48;100293.81;;;31.86
66604;BMP280;53460;39.612;8.822;2024-01-11T10:58:15;100274.56;;;31.84
66604;BMP280;53460;39.612;8.822;2024-01-11T11:00:41;100247.50;;;30.06
66604;BMP280;53460;39.612;8.822;2024-01-11T11:03:09;100175.75;;;27.39
66604;BMP280;53460;39.612;8.822;2024-01-11T11:05:37;100111.66;;;24.78
66604;BMP280;53460;39.612;8.822;2024-01-11T11:08:04;99997.50;;;22.10
66604;BMP280;53460;39.612;8.822;2024-01-11T11:10:33;99867.56;;;21.16
66604;BMP280;53460;39.612;8.822;2024-01-11T11:13:00;99725.16;;;21.07
66604;BMP280;53460;39.612;8.822;2024-01-11T11:15:28;99688.50;;;20.85
66604;BMP280;53460;39.612;8.822;2024-01-11T11:17:55;99653.72;;;20.25
66604;BMP280;53460;39.612;8.822;2024-01-11T11:20:21;99526.41;;;20.25
66604;BMP280;53460;39.612;8.822;2024-01-11T11:23:06;99491.88;;;20.27
66604;BMP280;53460;39.612;8.822;2024-01-11T11:25:32;99476.25;;;20.02
66604;BMP280;53460;39.612;8.822;2024-01-11T11:27:58;99422.81;;;18.65
66604;BMP280;53460;39.612;8.822;2024-01-11T11:30:30;99313.38;;;18.55
66604;BMP280;53460;39.612;8.822;2024-01-11T11:32:56;99204.84;;;19.18
66604;BMP280;53460;39.612;8.822;2024-01-11T11:35:25;99229.13;;;19.00
66604;BMP280;53460;39.612;8.822;2024-01-11T11:37:57;99140.53;;;18.68
66604;BMP280;53460;39.612;8.822;2024-01-11T11:40:33;98804.25;;;17.51
66604;BMP280;53460;39.612;8.822;2024-01-11T11:43:02;98539.41;;;17.26
66604;BMP280;53460;39.612;8.822;2024-01-11T11:45:30;98382.44;;;17.32
66604;BMP280;53460;39.612;8.822;2024-01-11T11:47:57;98344.03;;;17.31
66604;BMP280;53460;39.612;8.822;2024-01-11T11:50:23;98357.38;;;17.53
66604;BMP280;53460;39.612;8.822;2024-01-11T11:52:55;98502.91;;;17.72
66604;BMP280;53460;39.612;8.822;2024-01-11T11:55:23;98538.69;;;17.44
66604;BMP280;53460;39.612;8.822;2024-01-11T11:57:52;98449.81;;;17.09
66604;BMP280;53460;39.612;8.822;2024-01-11T12:00:19;98457.94;;;16.85
66604;BMP280;53460;39.612;8.822;2024-01-11T12:02:47;98455.91;;;16.88
66604;BMP280;53460;39.612;8.822;2024-01-11T12:05:13;98398.66;;;17.03
66604;BMP280;53460;39.612;8.822;2024-01-11T12:07:39;98344.81;;;17.01
66604;BMP280;53460;39.612;8.822;2024-01-11T12:10:06;98221.00;;;16.77
66604;BMP280;53460;39.612;8.822;2024-01-11T12:12:33;98200.94;;;16.37
66604;BMP280;53460;39.612;8.822;2024-01-11T12:14:59;98162.53;;;16.61
66604;BMP280;53460;39.612;8.822;2024-01-11T12:17:25;98269.84;;;17.44
66604;BMP280;53460;39.612;8.822;2024-01-11T12:19:52;98361.28;;;17.77
66604;BMP280;53460;39.612;8.822;2024-01-11T12:22:17;98357.41;;;17.56
66604;BMP280;53460;39.612;8.822;2024-01-11T12:24:45;98404.63;;;17.40
66604;BMP280;53460;39.612;8.822;2024-01-11T12:27:11;98320.53;;;17.17
66604;BMP280;53460;39.612;8.822;2024-01-11T12:29:39;98277.50;;;16.93
66604;BMP280;53460;39.612;8.822;2024-01-11T12:32:05;98299.13;;;16.40
66604;BMP280;53460;39.612;8.822;2024-01-11T12:34:31;98210.25;;;16.75
66604;BMP280;53460;39.612;8.822;2024-01-11T12:36:58;98172.66;;;16.48
66604;BMP280;53460;39.612;8.822;2024-01-11T12:39:28;98184.75;;;16.56
66604;BMP280;53460;39.612;8.822;2024-01-11T12:41:54;98218.34;;;16.69
66604;BMP280;53460;39.612;8.822;2024-01-11T12:44:23;98319.56;;;17.70
66604;BMP280;53460;39.612;8.822;2024-01-11T12:46:49;98542.59;;;18.00
66604;BMP280;53460;39.612;8.822;2024-01-11T12:49:15;98641.03;;;18.13
66604;BMP280;53460;39.612;8.822;2024-01-11T12:51:41;98774.53;;;18.67
66604;BMP280;53460;39.612;8.822;2024-01-11T12:54:13;98946.03;;;18.31
66604;BMP280;53460;39.612;8.822;2024-01-11T12:56:45;98902.81;;;18.13
66604;BMP280;53460;39.612;8.822;2024-01-11T12:59:11;98844.78;;;18.52
66604;BMP280;53460;39.612;8.822;2024-01-11T13:01:40;98924.38;;;18.03
66604;BMP280;53460;39.612;8.822;2024-01-11T13:04:08;98857.56;;;17.89
66604;BMP280;53460;39.612;8.822;2024-01-11T13:06:34;98874.97;;;17.41
66604;BMP280;53460;39.612;8.822;2024-01-11T13:09:01;98846.03;;;17.50
66604;BMP280;53460;39.612;8.822;2024-01-11T13:11:27;98826.41;;;17.35
66604;BMP280;53460;39.612;8.822;2024-01-11T13:13:53;98688.94;;;17.21
66604;BMP280;53460;39.612;8.822;2024-01-11T13:16:19;98696.41;;;17.55
66604;BMP280;53460;39.612;8.822;2024-01-11T13:18:46;98643.81;;;17.80
66604;BMP280;53460;39.612;8.822;2024-01-11T13:21:12;98733.47;;;17.44
66604;BMP280;53460;39.612;8.822;2024-01-11T13:23:38;98738.19;;;18.23
66604;BMP280;53460;39.612;8.822;2024-01-11T13:26:05;98923.09;;;18.54
66604;BMP280;53460;39.612;8.822;2024-01-11T13:28:31;98883.94;;;18.60
66604;BMP280;53460;39.612;8.822;2024-01-11T13:30:58;98845.41;;;18.63
66604;BMP280;53460;39.612;8.822;2024-01-11T13:33:25;98765.84;;;17.63
66604;BMP280;53460;39.612;8.822;2024-01-11T13:35:50;98612.09;;;17.91
66604;BMP280;53460;39.612;8.822;2024-01-11T13:38:16;98597.19;;;18.14
66604;BMP280;53460;39.612;8.822;2024-01-11T13:40:42;98703.66;;;18.66
66604;BMP280;53460;39.612;8.822;2024-01-11T13:43:09;98823.75;;;18.89
66604;BMP280;53460;39.612;8.822;2024-01-11T13:45:35;98835.31;;;18.03
66604;BMP280;53460;39.612;8.822;2024-01-11T13:48:05;98730.81;;;17.81
66604;BMP280;53460;39.612;8.822;2024-01-11T13:50:31;98753.00;;;17.45
66604;BMP280;53460;39.612;8.822;2024-01-11T13:53:00;98832.66;;;18.23
66604;BMP280;53460;39.612;8.822;2024-01-11T13:55:27;98962.25;;;18.90
66604;BMP280;53460;39.612;8.822;2024-01-11T13:57:53;99047.97;;;18.49
66604;BMP280;53460;39.612;8.822;2024-01-11T14:00:19;98987.19;;;18.19
66604;BMP280;53460;39.612;8.822;2024-01-11T14:02:48;98848.78;;;17.68